Detroit, Michigan
Traffic Map
Current Weather Conditions
Detroit, Michigan
Overcast Haze
Overcast
-7°
Feels Like: -7°
Wind Chill: -7° Ceiling: 6100
Heat Index: -7° Visibility: 6mi
Dew Point: -10° Wind: 2mph
Humidity: 80% Direction: 150° (SSE)
Pressure: 30.35in Gusts: 0mph
Raw Report DataCYQG 011600Z 15002KT 6SM HZ OVC061 M07/M10 A3035 RMK SC8 SLP290
Traffic Incident Summary
Active as of:
Severity:
Category:
InformationThere was an issue retrieving the traffic information for this location. Please try a different location or try again shortly.
Advertisements
Track Severe Weather on mobile